sensor_id;sensor_type;location;lat;lon;timestamp;temperature;humidity
60727;DHT22;46577;49.004;12.120;2022-09-09T00:02:20;15.20;99.90
60727;DHT22;46577;49.004;12.120;2022-09-09T00:07:48;15.20;99.90
60727;DHT22;46577;49.004;12.120;2022-09-09T00:10:31;15.20;99.90
60727;DHT22;46577;49.004;12.120;2022-09-09T00:18:27;15.10;99.90
60727;DHT22;46577;49.004;12.120;2022-09-09T00:21:03;15.00;99.90
60727;DHT22;46577;49.004;12.120;2022-09-09T00:23:35;15.00;99.90
60727;DHT22;46577;49.004;12.120;2022-09-09T00:28:29;14.90;99.90
60727;DHT22;46577;49.004;12.120;2022-09-09T00:31:07;14.80;99.90
60727;DHT22;46577;49.004;12.120;2022-09-09T00:33:36;14.90;99.90
60727;DHT22;46577;49.004;12.120;2022-09-09T00:36:12;14.90;99.90
60727;DHT22;46577;49.004;12.120;2022-09-09T00:38:51;14.90;99.90
60727;DHT22;46577;49.004;12.120;2022-09-09T00:41:36;14.90;99.90
60727;DHT22;46577;49.004;12.120;2022-09-09T00:44:37;14.90;99.90
60727;DHT22;46577;49.004;12.120;2022-09-09T00:47:46;14.90;99.90
60727;DHT22;46577;49.004;12.120;2022-09-09T00:50:27;14.80;99.90
60727;DHT22;46577;49.004;12.120;2022-09-09T00:53:08;14.80;99.90
60727;DHT22;46577;49.004;12.120;2022-09-09T00:58:02;14.90;99.90
60727;DHT22;46577;49.004;12.120;2022-09-09T01:00:30;14.90;99.90
60727;DHT22;46577;49.004;12.120;2022-09-09T01:08:56;15.00;99.90
60727;DHT22;46577;49.004;12.120;2022-09-09T01:17:44;15.10;99.90
60727;DHT22;46577;49.004;12.120;2022-09-09T01:20:25;15.10;99.90
60727;DHT22;46577;49.004;12.120;2022-09-09T01:28:07;15.10;99.90
60727;DHT22;46577;49.004;12.120;2022-09-09T01:30:34;15.10;99.90
60727;DHT22;46577;49.004;12.120;2022-09-09T01:33:00;15.10;99.90
60727;DHT22;46577;49.004;12.120;2022-09-09T01:38:17;15.30;99.90
60727;DHT22;46577;49.004;12.120;2022-09-09T01:40:43;15.40;99.90
60727;DHT22;46577;49.004;12.120;2022-09-09T01:43:09;15.40;99.90
60727;DHT22;46577;49.004;12.120;2022-09-09T01:45:35;15.40;99.90
60727;DHT22;46577;49.004;12.120;2022-09-09T01:48:02;15.50;99.90
60727;DHT22;46577;49.004;12.120;2022-09-09T01:50:28;15.40;99.90
60727;DHT22;46577;49.004;12.120;2022-09-09T01:52:57;15.30;99.90
60727;DHT22;46577;49.004;12.120;2022-09-09T01:55:32;15.30;99.90
60727;DHT22;46577;49.004;12.120;2022-09-09T01:58:21;15.30;99.90
60727;DHT22;46577;49.004;12.120;2022-09-09T02:01:02;15.20;99.90
60727;DHT22;46577;49.004;12.120;2022-09-09T02:03:32;15.20;99.90
60727;DHT22;46577;49.004;12.120;2022-09-09T02:06:24;15.20;99.90
60727;DHT22;46577;49.004;12.120;2022-09-09T02:08:55;15.30;99.90
60727;DHT22;46577;49.004;12.120;2022-09-09T02:11:26;15.30;99.90
60727;DHT22;46577;49.004;12.120;2022-09-09T02:14:06;15.30;99.90
60727;DHT22;46577;49.004;12.120;2022-09-09T02:16:54;15.20;99.90
60727;DHT22;46577;49.004;12.120;2022-09-09T02:19:28;15.10;99.90
60727;DHT22;46577;49.004;12.120;2022-09-09T02:21:57;15.10;99.90
60727;DHT22;46577;49.004;12.120;2022-09-09T02:24:26;15.10;99.90
60727;DHT22;46577;49.004;12.120;2022-09-09T02:26:54;15.10;99.90
60727;DHT22;46577;49.004;12.120;2022-09-09T02:29:26;15.00;99.90
60727;DHT22;46577;49.004;12.120;2022-09-09T02:31:56;15.00;99.90
60727;DHT22;46577;49.004;12.120;2022-09-09T02:34:23;15.00;99.90
60727;DHT22;46577;49.004;12.120;2022-09-09T02:36:50;15.10;99.90
60727;DHT22;46577;49.004;12.120;2022-09-09T02:39:18;15.10;99.90
60727;DHT22;46577;49.004;12.120;2022-09-09T02:41:44;15.00;99.90
60727;DHT22;46577;49.004;12.120;2022-09-09T02:44:17;15.10;99.90
60727;DHT22;46577;49.004;12.120;2022-09-09T02:52:28;15.10;99.90
60727;DHT22;46577;49.004;12.120;2022-09-09T02:55:05;15.10;99.90
60727;DHT22;46577;49.004;12.120;2022-09-09T02:57:33;15.10;99.90
60727;DHT22;46577;49.004;12.120;2022-09-09T03:00:00;15.00;99.90
60727;DHT22;46577;49.004;12.120;2022-09-09T03:02:27;15.00;99.90
60727;DHT22;46577;49.004;12.120;2022-09-09T03:04:52;15.00;99.90
60727;DHT22;46577;49.004;12.120;2022-09-09T03:07:19;15.00;99.90
60727;DHT22;46577;49.004;12.120;2022-09-09T03:09:44;15.00;99.90
60727;DHT22;46577;49.004;12.120;2022-09-09T03:12:11;15.00;99.90
60727;DHT22;46577;49.004;12.120;2022-09-09T03:14:37;15.00;99.90
60727;DHT22;46577;49.004;12.120;2022-09-09T03:17:06;14.90;99.90
60727;DHT22;46577;49.004;12.120;2022-09-09T03:19:32;14.90;99.90
60727;DHT22;46577;49.004;12.120;2022-09-09T03:21:58;14.90;99.90
60727;DHT22;46577;49.004;12.120;2022-09-09T03:24:24;14.90;99.90
60727;DHT22;46577;49.004;12.120;2022-09-09T03:26:50;14.90;99.90
60727;DHT22;46577;49.004;12.120;2022-09-09T03:29:16;14.90;99.90
60727;DHT22;46577;49.004;12.120;2022-09-09T03:31:43;14.90;99.90
60727;DHT22;46577;49.004;12.120;2022-09-09T03:34:09;14.90;99.90
60727;DHT22;46577;49.004;12.120;2022-09-09T03:36:35;14.80;99.90
60727;DHT22;46577;49.004;12.120;2022-09-09T03:39:01;14.80;99.90
60727;DHT22;46577;49.004;12.120;2022-09-09T03:41:28;14.80;99.90
60727;DHT22;46577;49.004;12.120;2022-09-09T03:43:54;14.80;99.90
60727;DHT22;46577;49.004;12.120;2022-09-09T03:46:23;14.80;99.90
60727;DHT22;46577;49.004;12.120;2022-09-09T03:48:49;14.80;99.90
60727;DHT22;46577;49.004;12.120;2022-09-09T03:51:15;14.80;99.90
60727;DHT22;46577;49.004;12.120;2022-09-09T03:53:41;14.80;99.90
60727;DHT22;46577;49.004;12.120;2022-09-09T03:56:08;14.80;99.90
60727;DHT22;46577;49.004;12.120;2022-09-09T03:58:36;14.80;99.90
60727;DHT22;46577;49.004;12.120;2022-09-09T04:01:12;14.80;99.90
60727;DHT22;46577;49.004;12.120;2022-09-09T04:03:39;14.80;99.90
60727;DHT22;46577;49.004;12.120;2022-09-09T04:06:06;14.80;99.90
60727;DHT22;46577;49.004;12.120;2022-09-09T04:08:33;14.80;99.90
60727;DHT22;46577;49.004;12.120;2022-09-09T04:11:00;14.80;99.90
60727;DHT22;46577;49.004;12.120;2022-09-09T04:13:28;14.80;99.90
60727;DHT22;46577;49.004;12.120;2022-09-09T04:15:55;14.90;99.90
60727;DHT22;46577;49.004;12.120;2022-09-09T04:18:22;14.80;99.90
60727;DHT22;46577;49.004;12.120;2022-09-09T04:20:48;14.80;99.90
60727;DHT22;46577;49.004;12.120;2022-09-09T04:23:16;14.80;99.90
60727;DHT22;46577;49.004;12.120;2022-09-09T04:25:44;14.80;99.90
60727;DHT22;46577;49.004;12.120;2022-09-09T04:28:10;14.70;99.90
60727;DHT22;46577;49.004;12.120;2022-09-09T04:30:36;14.70;99.90
60727;DHT22;46577;49.004;12.120;2022-09-09T04:33:02;14.60;99.90
60727;DHT22;46577;49.004;12.120;2022-09-09T04:35:27;14.60;99.90
60727;DHT22;46577;49.004;12.120;2022-09-09T04:37:53;14.60;99.90
60727;DHT22;46577;49.004;12.120;2022-09-09T04:40:18;14.70;99.90
60727;DHT22;46577;49.004;12.120;2022-09-09T04:42:44;14.70;99.90
60727;DHT22;46577;49.004;12.120;2022-09-09T04:45:10;14.70;99.90
60727;DHT22;46577;49.004;12.120;2022-09-09T04:47:36;14.70;99.90
60727;DHT22;46577;49.004;12.120;2022-09-09T04:50:02;14.80;99.90
60727;DHT22;46577;49.004;12.120;2022-09-09T04:52:28;14.80;99.90
60727;DHT22;46577;49.004;12.120;2022-09-09T04:54:53;14.90;99.90
60727;DHT22;46577;49.004;12.120;2022-09-09T04:57:19;14.90;99.90
60727;DHT22;46577;49.004;12.120;2022-09-09T04:59:45;14.90;99.90
60727;DHT22;46577;49.004;12.120;2022-09-09T05:02:11;14.90;99.90
60727;DHT22;46577;49.004;12.120;2022-09-09T05:04:37;14.90;99.90
60727;DHT22;46577;49.004;12.120;2022-09-09T05:07:03;14.90;99.90
60727;DHT22;46577;49.004;12.120;2022-09-09T05:09:28;15.00;99.90
60727;DHT22;46577;49.004;12.120;2022-09-09T05:11:54;15.00;99.90
60727;DHT22;46577;49.004;12.120;2022-09-09T05:14:20;15.00;99.90
60727;DHT22;46577;49.004;12.120;2022-09-09T05:16:45;14.90;99.90
60727;DHT22;46577;49.004;12.120;2022-09-09T05:19:12;15.00;99.90
60727;DHT22;46577;49.004;12.120;2022-09-09T05:21:38;15.00;99.90
60727;DHT22;46577;49.004;12.120;2022-09-09T05:24:04;15.10;99.90
60727;DHT22;46577;49.004;12.120;2022-09-09T05:26:29;15.20;99.90
60727;DHT22;46577;49.004;12.120;2022-09-09T05:28:55;15.20;99.90
60727;DHT22;46577;49.004;12.120;2022-09-09T05:31:22;15.30;99.90
60727;DHT22;46577;49.004;12.120;2022-09-09T05:33:48;15.40;99.90
60727;DHT22;46577;49.004;12.120;2022-09-09T05:36:19;15.50;99.90
60727;DHT22;46577;49.004;12.120;2022-09-09T05:38:45;15.40;99.90
60727;DHT22;46577;49.004;12.120;2022-09-09T05:41:12;15.30;99.90
60727;DHT22;46577;49.004;12.120;2022-09-09T05:43:38;15.30;99.90
60727;DHT22;46577;49.004;12.120;2022-09-09T05:46:09;15.50;99.90
60727;DHT22;46577;49.004;12.120;2022-09-09T05:48:40;15.50;99.90
60727;DHT22;46577;49.004;12.120;2022-09-09T05:51:09;15.50;99.90
60727;DHT22;46577;49.004;12.120;2022-09-09T05:53:37;15.60;99.90
60727;DHT22;46577;49.004;12.120;2022-09-09T05:56:08;15.80;99.90
60727;DHT22;46577;49.004;12.120;2022-09-09T05:58:36;15.90;99.90
60727;DHT22;46577;49.004;12.120;2022-09-09T06:01:06;15.90;99.90
60727;DHT22;46577;49.004;12.120;2022-09-09T06:03:37;15.90;99.90
60727;DHT22;46577;49.004;12.120;2022-09-09T06:06:05;15.90;99.90
60727;DHT22;46577;49.004;12.120;2022-09-09T06:08:35;15.80;99.90
60727;DHT22;46577;49.004;12.120;2022-09-09T06:11:10;15.80;99.90
60727;DHT22;46577;49.004;12.120;2022-09-09T06:13:38;15.70;99.90
60727;DHT22;46577;49.004;12.120;2022-09-09T06:16:08;15.60;99.90
60727;DHT22;46577;49.004;12.120;2022-09-09T06:18:34;15.30;99.90
60727;DHT22;46577;49.004;12.120;2022-09-09T06:21:01;15.30;99.90
60727;DHT22;46577;49.004;12.120;2022-09-09T06:23:29;15.30;99.90
60727;DHT22;46577;49.004;12.120;2022-09-09T06:26:28;15.30;99.90
60727;DHT22;46577;49.004;12.120;2022-09-09T06:28:56;15.30;99.90
60727;DHT22;46577;49.004;12.120;2022-09-09T06:31:25;15.70;99.90
60727;DHT22;46577;49.004;12.120;2022-09-09T06:34:00;16.00;99.90
60727;DHT22;46577;49.004;12.120;2022-09-09T06:36:31;16.30;99.90
60727;DHT22;46577;49.004;12.120;2022-09-09T06:38:58;16.60;99.90
60727;DHT22;46577;49.004;12.120;2022-09-09T06:41:27;16.80;99.90
60727;DHT22;46577;49.004;12.120;2022-09-09T06:43:53;16.80;99.90
60727;DHT22;46577;49.004;12.120;2022-09-09T06:46:20;16.70;99.90
60727;DHT22;46577;49.004;12.120;2022-09-09T06:48:53;16.80;99.90
60727;DHT22;46577;49.004;12.120;2022-09-09T06:51:22;16.90;99.90
60727;DHT22;46577;49.004;12.120;2022-09-09T06:53:51;17.10;99.90
60727;DHT22;46577;49.004;12.120;2022-09-09T06:56:18;17.20;99.90
60727;DHT22;46577;49.004;12.120;2022-09-09T06:58:45;17.10;99.90
60727;DHT22;46577;49.004;12.120;2022-09-09T07:01:16;18.00;99.90
60727;DHT22;46577;49.004;12.120;2022-09-09T07:03:46;20.00;99.90
60727;DHT22;46577;49.004;12.120;2022-09-09T07:06:15;22.40;99.90
60727;DHT22;46577;49.004;12.120;2022-09-09T07:08:42;24.80;94.20
60727;DHT22;46577;49.004;12.120;2022-09-09T07:11:08;26.20;83.10
60727;DHT22;46577;49.004;12.120;2022-09-09T07:13:35;25.80;82.20
60727;DHT22;46577;49.004;12.120;2022-09-09T07:18:30;27.60;72.90
60727;DHT22;46577;49.004;12.120;2022-09-09T07:20:56;27.50;71.40
60727;DHT22;46577;49.004;12.120;2022-09-09T07:23:22;27.10;71.80
60727;DHT22;46577;49.004;12.120;2022-09-09T07:25:48;26.80;72.30
60727;DHT22;46577;49.004;12.120;2022-09-09T07:28:14;26.60;71.10
60727;DHT22;46577;49.004;12.120;2022-09-09T07:30:40;25.50;74.10
60727;DHT22;46577;49.004;12.120;2022-09-09T07:33:06;24.80;76.10
60727;DHT22;46577;49.004;12.120;2022-09-09T07:35:32;23.70;80.70
60727;DHT22;46577;49.004;12.120;2022-09-09T07:38:01;22.60;86.20
60727;DHT22;46577;49.004;12.120;2022-09-09T07:40:26;21.80;90.80
60727;DHT22;46577;49.004;12.120;2022-09-09T07:42:52;21.70;92.50
60727;DHT22;46577;49.004;12.120;2022-09-09T07:45:18;21.70;92.90
60727;DHT22;46577;49.004;12.120;2022-09-09T07:47:44;21.30;94.40
60727;DHT22;46577;49.004;12.120;2022-09-09T07:50:10;20.90;95.70
60727;DHT22;46577;49.004;12.120;2022-09-09T07:52:37;20.50;97.20
60727;DHT22;46577;49.004;12.120;2022-09-09T07:55:03;20.10;98.50
60727;DHT22;46577;49.004;12.120;2022-09-09T07:57:30;19.80;99.90
60727;DHT22;46577;49.004;12.120;2022-09-09T07:59:56;19.60;99.90
60727;DHT22;46577;49.004;12.120;2022-09-09T08:02:23;19.30;99.90
60727;DHT22;46577;49.004;12.120;2022-09-09T08:04:49;19.00;99.90
60727;DHT22;46577;49.004;12.120;2022-09-09T08:07:14;18.70;99.90
60727;DHT22;46577;49.004;12.120;2022-09-09T08:09:41;18.00;99.90
60727;DHT22;46577;49.004;12.120;2022-09-09T08:12:07;17.70;99.90
60727;DHT22;46577;49.004;12.120;2022-09-09T08:14:34;17.50;99.90
60727;DHT22;46577;49.004;12.120;2022-09-09T08:16:59;17.30;99.90
60727;DHT22;46577;49.004;12.120;2022-09-09T08:19:25;17.30;99.90
60727;DHT22;46577;49.004;12.120;2022-09-09T08:21:54;17.30;99.90
60727;DHT22;46577;49.004;12.120;2022-09-09T08:24:19;17.40;99.90
60727;DHT22;46577;49.004;12.120;2022-09-09T08:26:47;17.60;99.90
60727;DHT22;46577;49.004;12.120;2022-09-09T08:29:14;17.70;99.90
60727;DHT22;46577;49.004;12.120;2022-09-09T08:31:41;17.70;99.90
60727;DHT22;46577;49.004;12.120;2022-09-09T08:34:08;17.70;99.90
60727;DHT22;46577;49.004;12.120;2022-09-09T08:36:40;17.80;99.90
60727;DHT22;46577;49.004;12.120;2022-09-09T08:39:08;17.90;99.90
60727;DHT22;46577;49.004;12.120;2022-09-09T08:44:45;18.10;99.90
60727;DHT22;46577;49.004;12.120;2022-09-09T08:47:31;18.10;99.90
60727;DHT22;46577;49.004;12.120;2022-09-09T08:53:00;18.00;99.90
60727;DHT22;46577;49.004;12.120;2022-09-09T08:55:51;18.00;99.90
60727;DHT22;46577;49.004;12.120;2022-09-09T09:04:15;18.20;99.90
60727;DHT22;46577;49.004;12.120;2022-09-09T09:07:16;18.40;99.90
60727;DHT22;46577;49.004;12.120;2022-09-09T09:12:27;18.30;99.90
60727;DHT22;46577;49.004;12.120;2022-09-09T09:14:54;18.20;99.90
60727;DHT22;46577;49.004;12.120;2022-09-09T09:17:26;18.40;99.90
60727;DHT22;46577;49.004;12.120;2022-09-09T09:19:53;18.70;99.90
60727;DHT22;46577;49.004;12.120;2022-09-09T09:22:21;18.80;99.90
60727;DHT22;46577;49.004;12.120;2022-09-09T09:25:05;18.80;99.90
60727;DHT22;46577;49.004;12.120;2022-09-09T09:27:40;19.00;99.90
60727;DHT22;46577;49.004;12.120;2022-09-09T09:30:20;19.20;99.90
60727;DHT22;46577;49.004;12.120;2022-09-09T09:35:18;20.00;99.90
60727;DHT22;46577;49.004;12.120;2022-09-09T09:37:44;21.00;99.90
60727;DHT22;46577;49.004;12.120;2022-09-09T09:40:11;22.20;99.90
60727;DHT22;46577;49.004;12.120;2022-09-09T09:42:47;23.10;99.90
60727;DHT22;46577;49.004;12.120;2022-09-09T09:45:42;23.60;98.70
60727;DHT22;46577;49.004;12.120;2022-09-09T09:48:12;24.20;96.90
60727;DHT22;46577;49.004;12.120;2022-09-09T09:50:54;24.20;96.00
60727;DHT22;46577;49.004;12.120;2022-09-09T09:58:21;23.40;96.20
60727;DHT22;46577;49.004;12.120;2022-09-09T10:00:49;23.80;94.90
60727;DHT22;46577;49.004;12.120;2022-09-09T10:03:24;24.10;95.50
60727;DHT22;46577;49.004;12.120;2022-09-09T10:05:50;26.10;92.90
60727;DHT22;46577;49.004;12.120;2022-09-09T10:08:17;28.60;86.50
60727;DHT22;46577;49.004;12.120;2022-09-09T10:10:51;32.00;67.60
60727;DHT22;46577;49.004;12.120;2022-09-09T10:13:32;31.50;58.80
60727;DHT22;46577;49.004;12.120;2022-09-09T10:18:38;32.50;56.30
60727;DHT22;46577;49.004;12.120;2022-09-09T10:26:47;33.70;49.00
60727;DHT22;46577;49.004;12.120;2022-09-09T10:37:49;31.10;50.90
60727;DHT22;46577;49.004;12.120;2022-09-09T10:40:25;28.90;56.20
60727;DHT22;46577;49.004;12.120;2022-09-09T10:42:59;26.60;63.60
60727;DHT22;46577;49.004;12.120;2022-09-09T10:48:24;24.70;73.10
60727;DHT22;46577;49.004;12.120;2022-09-09T10:51:18;24.30;76.00
60727;DHT22;46577;49.004;12.120;2022-09-09T10:56:43;24.50;78.40
60727;DHT22;46577;49.004;12.120;2022-09-09T10:59:17;24.90;78.30
60727;DHT22;46577;49.004;12.120;2022-09-09T11:01:47;25.40;75.80
60727;DHT22;46577;49.004;12.120;2022-09-09T11:06:48;27.90;69.00
60727;DHT22;46577;49.004;12.120;2022-09-09T11:09:19;29.20;64.00
60727;DHT22;46577;49.004;12.120;2022-09-09T11:11:57;30.00;60.00
60727;DHT22;46577;49.004;12.120;2022-09-09T11:17:20;30.80;55.70
60727;DHT22;46577;49.004;12.120;2022-09-09T11:19:47;32.30;51.90
60727;DHT22;46577;49.004;12.120;2022-09-09T11:25:26;34.40;45.70
60727;DHT22;46577;49.004;12.120;2022-09-09T11:36:37;33.10;51.60
60727;DHT22;46577;49.004;12.120;2022-09-09T11:39:29;31.00;53.40
60727;DHT22;46577;49.004;12.120;2022-09-09T11:42:18;31.50;49.30
60727;DHT22;46577;49.004;12.120;2022-09-09T11:44:44;30.90;50.90
60727;DHT22;46577;49.004;12.120;2022-09-09T11:47:28;29.80;52.60
60727;DHT22;46577;49.004;12.120;2022-09-09T11:52:43;29.00;57.20
60727;DHT22;46577;49.004;12.120;2022-09-09T11:55:25;30.50;54.20
60727;DHT22;46577;49.004;12.120;2022-09-09T11:57:58;32.10;50.70
60727;DHT22;46577;49.004;12.120;2022-09-09T12:00:49;31.80;51.40
60727;DHT22;46577;49.004;12.120;2022-09-09T12:03:50;32.60;49.80
60727;DHT22;46577;49.004;12.120;2022-09-09T12:06:31;33.70;47.40
60727;DHT22;46577;49.004;12.120;2022-09-09T12:09:16;31.50;49.20
60727;DHT22;46577;49.004;12.120;2022-09-09T12:11:43;29.30;54.10
60727;DHT22;46577;49.004;12.120;2022-09-09T12:14:20;27.30;59.20
60727;DHT22;46577;49.004;12.120;2022-09-09T12:16:46;25.50;65.00
60727;DHT22;46577;49.004;12.120;2022-09-09T12:19:19;24.70;70.00
60727;DHT22;46577;49.004;12.120;2022-09-09T12:24:25;24.60;73.20
60727;DHT22;46577;49.004;12.120;2022-09-09T12:27:15;24.60;74.10
60727;DHT22;46577;49.004;12.120;2022-09-09T12:29:53;24.70;74.70
60727;DHT22;46577;49.004;12.120;2022-09-09T12:32:24;24.10;78.30
60727;DHT22;46577;49.004;12.120;2022-09-09T12:34:58;23.90;80.20
60727;DHT22;46577;49.004;12.120;2022-09-09T12:40:21;23.70;82.00
60727;DHT22;46577;49.004;12.120;2022-09-09T12:42:47;23.40;83.40
60727;DHT22;46577;49.004;12.120;2022-09-09T12:45:26;23.10;85.50
60727;DHT22;46577;49.004;12.120;2022-09-09T12:48:07;22.60;89.30
60727;DHT22;46577;49.004;12.120;2022-09-09T12:50:42;22.40;90.70
60727;DHT22;46577;49.004;12.120;2022-09-09T12:53:15;22.50;91.40
60727;DHT22;46577;49.004;12.120;2022-09-09T12:55:51;22.60;91.80
60727;DHT22;46577;49.004;12.120;2022-09-09T12:58:18;22.60;90.40
60727;DHT22;46577;49.004;12.120;2022-09-09T13:00:55;22.60;90.30
60727;DHT22;46577;49.004;12.120;2022-09-09T13:03:25;23.00;88.50
60727;DHT22;46577;49.004;12.120;2022-09-09T13:05:51;23.10;88.70
60727;DHT22;46577;49.004;12.120;2022-09-09T13:08:18;23.50;88.30
60727;DHT22;46577;49.004;12.120;2022-09-09T13:13:16;23.80;87.10
60727;DHT22;46577;49.004;12.120;2022-09-09T13:15:52;23.80;86.40
60727;DHT22;46577;49.004;12.120;2022-09-09T13:18:22;23.60;87.00
60727;DHT22;46577;49.004;12.120;2022-09-09T13:20:49;23.30;88.50
60727;DHT22;46577;49.004;12.120;2022-09-09T13:23:16;23.30;90.00
60727;DHT22;46577;49.004;12.120;2022-09-09T13:25:58;23.10;90.00
60727;DHT22;46577;49.004;12.120;2022-09-09T13:28:27;22.70;90.80
60727;DHT22;46577;49.004;12.120;2022-09-09T13:31:21;22.60;91.50
60727;DHT22;46577;49.004;12.120;2022-09-09T13:33:47;22.90;91.80
60727;DHT22;46577;49.004;12.120;2022-09-09T13:36:13;23.10;90.80
60727;DHT22;46577;49.004;12.120;2022-09-09T13:41:21;23.10;91.10
60727;DHT22;46577;49.004;12.120;2022-09-09T13:43:47;23.10;91.20
60727;DHT22;46577;49.004;12.120;2022-09-09T13:46:33;22.90;91.40
60727;DHT22;46577;49.004;12.120;2022-09-09T13:49:03;23.10;89.40
60727;DHT22;46577;49.004;12.120;2022-09-09T13:51:46;23.30;86.20
60727;DHT22;46577;49.004;12.120;2022-09-09T13:54:17;23.40;85.00
60727;DHT22;46577;49.004;12.120;2022-09-09T13:56:43;23.30;82.10
60727;DHT22;46577;49.004;12.120;2022-09-09T13:59:14;23.10;83.40
60727;DHT22;46577;49.004;12.120;2022-09-09T14:01:40;23.20;84.70
60727;DHT22;46577;49.004;12.120;2022-09-09T14:04:07;23.40;84.70
60727;DHT22;46577;49.004;12.120;2022-09-09T14:06:35;23.50;81.30
60727;DHT22;46577;49.004;12.120;2022-09-09T14:09:04;23.50;81.90
60727;DHT22;46577;49.004;12.120;2022-09-09T14:11:30;23.50;81.20
60727;DHT22;46577;49.004;12.120;2022-09-09T14:13:56;23.60;81.20
60727;DHT22;46577;49.004;12.120;2022-09-09T14:16:21;23.50;80.40
60727;DHT22;46577;49.004;12.120;2022-09-09T14:18:47;23.60;80.40
60727;DHT22;46577;49.004;12.120;2022-09-09T14:21:13;23.60;78.90
60727;DHT22;46577;49.004;12.120;2022-09-09T14:23:40;23.30;78.50
60727;DHT22;46577;49.004;12.120;2022-09-09T14:26:06;23.20;80.00
60727;DHT22;46577;49.004;12.120;2022-09-09T14:28:31;23.00;80.10
60727;DHT22;46577;49.004;12.120;2022-09-09T14:31:02;22.90;81.30
60727;DHT22;46577;49.004;12.120;2022-09-09T14:33:29;22.70;82.30
60727;DHT22;46577;49.004;12.120;2022-09-09T14:35:58;22.80;82.20
60727;DHT22;46577;49.004;12.120;2022-09-09T14:38:26;22.90;81.50
60727;DHT22;46577;49.004;12.120;2022-09-09T14:40:53;22.90;82.30
60727;DHT22;46577;49.004;12.120;2022-09-09T14:43:19;22.90;82.20
60727;DHT22;46577;49.004;12.120;2022-09-09T14:45:45;22.80;81.60
60727;DHT22;46577;49.004;12.120;2022-09-09T14:48:13;22.70;82.30
60727;DHT22;46577;49.004;12.120;2022-09-09T14:50:41;22.80;82.60
60727;DHT22;46577;49.004;12.120;2022-09-09T14:53:07;22.70;82.30
60727;DHT22;46577;49.004;12.120;2022-09-09T14:55:34;22.80;81.90
60727;DHT22;46577;49.004;12.120;2022-09-09T14:57:59;22.70;81.80
60727;DHT22;46577;49.004;12.120;2022-09-09T15:00:25;22.70;82.30
60727;DHT22;46577;49.004;12.120;2022-09-09T15:02:54;22.90;81.80
60727;DHT22;46577;49.004;12.120;2022-09-09T15:05:20;22.80;82.20
60727;DHT22;46577;49.004;12.120;2022-09-09T15:07:46;22.50;83.00
60727;DHT22;46577;49.004;12.120;2022-09-09T15:10:14;22.40;82.50
60727;DHT22;46577;49.004;12.120;2022-09-09T15:12:40;22.40;83.50
60727;DHT22;46577;49.004;12.120;2022-09-09T15:15:07;22.50;83.00
60727;DHT22;46577;49.004;12.120;2022-09-09T15:17:33;22.60;83.20
60727;DHT22;46577;49.004;12.120;2022-09-09T15:19:59;22.30;83.60
60727;DHT22;46577;49.004;12.120;2022-09-09T15:22:25;22.20;84.60
60727;DHT22;46577;49.004;12.120;2022-09-09T15:24:50;22.00;84.90
60727;DHT22;46577;49.004;12.120;2022-09-09T15:27:16;21.80;86.10
60727;DHT22;46577;49.004;12.120;2022-09-09T15:29:43;21.80;87.30
60727;DHT22;46577;49.004;12.120;2022-09-09T15:32:09;21.80;87.70
60727;DHT22;46577;49.004;12.120;2022-09-09T15:34:35;21.70;88.80
60727;DHT22;46577;49.004;12.120;2022-09-09T15:37:01;21.50;89.30
60727;DHT22;46577;49.004;12.120;2022-09-09T15:39:26;21.40;89.30
60727;DHT22;46577;49.004;12.120;2022-09-09T15:41:52;21.30;89.30
60727;DHT22;46577;49.004;12.120;2022-09-09T15:44:17;21.20;89.80
60727;DHT22;46577;49.004;12.120;2022-09-09T15:46:49;21.20;90.10
60727;DHT22;46577;49.004;12.120;2022-09-09T15:49:17;21.20;90.40
60727;DHT22;46577;49.004;12.120;2022-09-09T15:51:51;21.20;90.50
60727;DHT22;46577;49.004;12.120;2022-09-09T15:54:18;21.30;89.80
60727;DHT22;46577;49.004;12.120;2022-09-09T15:56:46;21.40;89.00
60727;DHT22;46577;49.004;12.120;2022-09-09T15:59:14;21.30;88.60
60727;DHT22;46577;49.004;12.120;2022-09-09T16:01:40;21.30;88.80
60727;DHT22;46577;49.004;12.120;2022-09-09T16:04:07;21.20;88.90
60727;DHT22;46577;49.004;12.120;2022-09-09T16:06:33;21.20;89.00
60727;DHT22;46577;49.004;12.120;2022-09-09T16:08:59;21.10;89.00
60727;DHT22;46577;49.004;12.120;2022-09-09T16:11:33;21.00;89.70
60727;DHT22;46577;49.004;12.120;2022-09-09T16:13:59;21.00;90.00
60727;DHT22;46577;49.004;12.120;2022-09-09T16:16:27;21.00;90.10
60727;DHT22;46577;49.004;12.120;2022-09-09T16:18:55;20.90;90.40
60727;DHT22;46577;49.004;12.120;2022-09-09T16:21:29;20.90;90.40
60727;DHT22;46577;49.004;12.120;2022-09-09T16:23:56;20.80;90.60
60727;DHT22;46577;49.004;12.120;2022-09-09T16:26:23;20.70;90.90
60727;DHT22;46577;49.004;12.120;2022-09-09T16:28:49;20.60;91.40
60727;DHT22;46577;49.004;12.120;2022-09-09T16:31:22;20.70;91.10
60727;DHT22;46577;49.004;12.120;2022-09-09T16:33:49;20.60;91.30
60727;DHT22;46577;49.004;12.120;2022-09-09T16:36:17;20.60;91.50
60727;DHT22;46577;49.004;12.120;2022-09-09T16:38:43;20.70;91.70
60727;DHT22;46577;49.004;12.120;2022-09-09T16:41:10;20.80;91.40
60727;DHT22;46577;49.004;12.120;2022-09-09T16:43:36;20.80;91.40
60727;DHT22;46577;49.004;12.120;2022-09-09T16:46:10;20.80;91.50
60727;DHT22;46577;49.004;12.120;2022-09-09T16:48:36;20.70;91.80
60727;DHT22;46577;49.004;12.120;2022-09-09T16:51:05;20.70;91.80
60727;DHT22;46577;49.004;12.120;2022-09-09T16:53:32;20.60;92.10
60727;DHT22;46577;49.004;12.120;2022-09-09T16:55:57;20.60;92.30
60727;DHT22;46577;49.004;12.120;2022-09-09T16:58:23;20.50;92.40
60727;DHT22;46577;49.004;12.120;2022-09-09T17:00:49;20.50;92.70
60727;DHT22;46577;49.004;12.120;2022-09-09T17:03:16;20.40;93.00
60727;DHT22;46577;49.004;12.120;2022-09-09T17:05:42;20.40;93.30
60727;DHT22;46577;49.004;12.120;2022-09-09T17:08:07;20.40;93.70
60727;DHT22;46577;49.004;12.120;2022-09-09T17:10:34;20.40;94.00
60727;DHT22;46577;49.004;12.120;2022-09-09T17:13:05;20.50;91.30
60727;DHT22;46577;49.004;12.120;2022-09-09T17:15:30;20.50;90.60
60727;DHT22;46577;49.004;12.120;2022-09-09T17:17:56;20.50;84.90
60727;DHT22;46577;49.004;12.120;2022-09-09T17:20:21;20.50;83.10
60727;DHT22;46577;49.004;12.120;2022-09-09T17:22:47;20.50;80.60
60727;DHT22;46577;49.004;12.120;2022-09-09T17:25:14;20.40;81.20
60727;DHT22;46577;49.004;12.120;2022-09-09T17:27:39;20.30;79.80
60727;DHT22;46577;49.004;12.120;2022-09-09T17:30:06;20.30;80.40